createdAt,value
2023-04-02T00:01:31.865Z,23.64
2023-04-02T00:03:37.016Z,23.64
2023-04-02T00:05:42.318Z,23.64
2023-04-02T00:07:47.301Z,23.63
2023-04-02T00:09:52.316Z,23.61
2023-04-02T00:11:57.305Z,23.62
2023-04-02T00:14:02.408Z,23.61
2023-04-02T00:16:07.458Z,23.6
2023-04-02T00:18:12.701Z,23.6
2023-04-02T00:20:17.916Z,23.59
2023-04-02T00:22:23.025Z,23.58
2023-04-02T00:24:28.010Z,23.59
2023-04-02T00:26:33.084Z,23.59
2023-04-02T00:28:38.212Z,23.57
2023-04-02T00:30:43.292Z,23.56
2023-04-02T00:32:48.293Z,23.54
2023-04-02T00:34:53.457Z,23.53
2023-04-02T00:36:58.489Z,23.53
2023-04-02T00:39:03.496Z,23.52
2023-04-02T00:41:08.508Z,23.51
2023-04-02T00:43:13.694Z,23.49
2023-04-02T00:45:18.685Z,23.47
2023-04-02T00:47:23.672Z,23.45
2023-04-02T00:49:28.778Z,23.44
2023-04-02T00:51:33.763Z,23.43
2023-04-02T00:53:38.807Z,23.42
2023-04-02T00:55:43.835Z,23.4
2023-04-02T00:57:48.872Z,23.37
2023-04-02T00:59:53.847Z,23.35
2023-04-02T01:01:58.880Z,23.33
2023-04-02T01:04:03.949Z,23.32
2023-04-02T01:06:09.131Z,23.3
2023-04-02T01:08:14.330Z,23.28
2023-04-02T01:10:19.308Z,23.27
2023-04-02T01:12:25.001Z,23.25
2023-04-02T01:14:30.018Z,23.24
2023-04-02T01:16:35.002Z,23.22
2023-04-02T01:18:39.996Z,23.2
2023-04-02T01:20:45.028Z,23.19
2023-04-02T01:24:40.898Z,23.13
2023-04-02T01:26:45.873Z,23.13
2023-04-02T01:28:50.918Z,23.13
2023-04-02T01:30:55.987Z,23.12
2023-04-02T01:33:01.147Z,23.1
2023-04-02T01:35:06.320Z,23.08
2023-04-02T01:37:11.294Z,23.08
2023-04-02T01:39:16.349Z,23.07
2023-04-02T01:41:21.369Z,23.05
2023-04-02T01:43:26.328Z,23.05
2023-04-02T01:45:31.440Z,23.03
2023-04-02T01:47:36.974Z,23.01
2023-04-02T01:49:42.094Z,23.02
2023-04-02T01:51:47.070Z,23.01
2023-04-02T01:53:52.144Z,23.01
2023-04-02T01:55:57.134Z,23
2023-04-02T01:58:02.213Z,22.99
2023-04-02T02:00:07.245Z,22.99
2023-04-02T02:02:12.327Z,22.98
2023-04-02T02:04:17.589Z,22.98
2023-04-02T02:06:22.566Z,22.98
2023-04-02T02:08:27.587Z,22.96
2023-04-02T02:10:32.658Z,22.96
2023-04-02T02:12:37.664Z,22.95
2023-04-02T02:14:42.637Z,22.94
2023-04-02T02:16:47.673Z,22.93
2023-04-02T02:18:52.862Z,22.92
2023-04-02T02:20:57.949Z,22.91
2023-04-02T02:23:02.936Z,22.9
2023-04-02T02:25:07.947Z,22.89
2023-04-02T02:27:13.065Z,22.88
2023-04-02T02:29:18.038Z,22.88
2023-04-02T02:31:23.101Z,22.88
2023-04-02T02:33:28.262Z,22.87
2023-04-02T02:35:33.606Z,22.86
2023-04-02T02:37:39.797Z,22.86
2023-04-02T02:39:44.749Z,22.85
2023-04-02T02:41:49.764Z,22.83
2023-04-02T02:43:54.757Z,22.81
2023-04-02T02:45:59.832Z,22.81
2023-04-02T02:48:05.027Z,22.81
2023-04-02T02:50:10.209Z,22.79
2023-04-02T02:52:15.173Z,22.78
2023-04-02T02:54:20.179Z,22.77
2023-04-02T02:56:25.175Z,22.77
2023-04-02T02:58:30.151Z,22.76
2023-04-02T03:00:35.289Z,22.76
2023-04-02T03:02:40.368Z,22.74
2023-04-02T03:04:45.717Z,22.74
2023-04-02T03:06:50.692Z,22.72
2023-04-02T03:08:55.718Z,22.71
2023-04-02T03:11:00.790Z,22.7
2023-04-02T03:13:05.780Z,22.69
2023-04-02T03:15:10.820Z,22.69
2023-04-02T03:17:15.832Z,22.68
2023-04-02T03:19:20.814Z,22.66
2023-04-02T03:21:25.804Z,22.65
2023-04-02T03:23:30.909Z,22.64
2023-04-02T03:25:36.183Z,22.63
2023-04-02T03:27:41.609Z,22.63
2023-04-02T03:29:46.609Z,22.62
2023-04-02T03:31:51.564Z,22.61
2023-04-02T03:33:56.639Z,22.6
2023-04-02T03:36:01.726Z,22.6
2023-04-02T03:38:06.889Z,22.58
2023-04-02T03:40:11.931Z,22.56
2023-04-02T03:42:16.922Z,22.54
2023-04-02T03:44:22.039Z,22.54
2023-04-02T03:46:27.048Z,22.53
2023-04-02T03:48:32.376Z,22.52
2023-04-02T03:50:37.379Z,22.51
2023-04-02T03:52:42.465Z,22.48
2023-04-02T03:54:53.386Z,22.47
2023-04-02T03:56:59.271Z,22.46
2023-04-02T03:59:04.551Z,22.45
2023-04-02T04:01:09.636Z,22.43
2023-04-02T04:03:14.628Z,22.42
2023-04-02T04:05:19.630Z,22.41
2023-04-02T04:07:24.620Z,22.4
2023-04-02T04:09:29.596Z,22.4
2023-04-02T04:11:34.575Z,22.39
2023-04-02T04:13:39.574Z,22.38
2023-04-02T04:15:44.558Z,22.37
2023-04-02T04:17:49.586Z,22.37
2023-04-02T04:19:54.746Z,22.37
2023-04-02T04:21:59.742Z,22.36
2023-04-02T04:24:04.749Z,22.36
2023-04-02T04:26:09.846Z,22.34
2023-04-02T04:28:14.868Z,22.34
2023-04-02T04:30:19.886Z,22.34
2023-04-02T04:32:24.886Z,22.33
2023-04-02T04:34:30.498Z,22.32
2023-04-02T04:36:35.617Z,22.33
2023-04-02T04:38:40.569Z,22.32
2023-04-02T04:40:45.565Z,22.31
2023-04-02T04:42:50.549Z,22.3
2023-04-02T04:44:55.556Z,22.29
2023-04-02T04:47:00.517Z,22.29
2023-04-02T04:49:05.504Z,22.27
2023-04-02T04:51:10.525Z,22.27
2023-04-02T04:53:15.472Z,22.28
2023-04-02T04:55:20.490Z,22.28
2023-04-02T04:57:25.528Z,22.28
2023-04-02T04:59:30.665Z,22.29
2023-04-02T05:01:35.696Z,22.28
2023-04-02T05:03:40.877Z,22.27
2023-04-02T05:05:45.955Z,22.28
2023-04-02T05:07:50.925Z,22.26
2023-04-02T05:09:55.881Z,22.27
2023-04-02T05:12:00.897Z,22.28
2023-04-02T05:14:05.895Z,22.28
2023-04-02T05:16:10.953Z,22.28
2023-04-02T05:18:16.195Z,22.28
2023-04-02T05:20:21.218Z,22.28
2023-04-02T05:22:26.223Z,22.29
2023-04-02T05:24:31.255Z,22.31
2023-04-02T05:26:36.248Z,22.3
2023-04-02T05:28:41.233Z,22.3
2023-04-02T05:30:46.246Z,22.3
2023-04-02T05:32:51.253Z,22.31
2023-04-02T05:34:56.472Z,22.29
2023-04-02T05:37:01.486Z,22.3
2023-04-02T05:39:09.886Z,22.3
2023-04-02T05:41:14.938Z,22.31
2023-04-02T05:43:19.944Z,22.31
2023-04-02T05:45:24.947Z,22.31
2023-04-02T05:47:30.030Z,22.3
2023-04-02T05:49:35.323Z,22.3
2023-04-02T05:51:40.261Z,22.29
2023-04-02T05:53:45.322Z,22.29
2023-04-02T05:55:50.377Z,22.27
2023-04-02T05:58:07.356Z,22.27
2023-04-02T06:00:39.952Z,22.27
2023-04-02T06:02:44.994Z,22.29
2023-04-02T06:04:50.110Z,22.26
2023-04-02T06:06:55.122Z,22.27
2023-04-02T06:09:00.119Z,22.28
2023-04-02T06:11:05.088Z,22.27
2023-04-02T06:13:10.127Z,22.27
2023-04-02T06:15:15.103Z,22.28
2023-04-02T06:17:20.109Z,22.26
2023-04-02T06:19:25.143Z,22.27
2023-04-02T06:21:30.140Z,22.28
2023-04-02T06:23:35.138Z,22.27
2023-04-02T06:25:40.151Z,22.28
2023-04-02T06:27:45.119Z,22.26
2023-04-02T06:29:50.182Z,22.25
2023-04-02T06:31:55.255Z,22.23
2023-04-02T06:34:00.234Z,22.21
2023-04-02T06:36:05.314Z,22.21
2023-04-02T06:38:10.611Z,22.23
2023-04-02T06:40:15.647Z,22.23
2023-04-02T06:42:20.610Z,22.21
2023-04-02T06:44:25.673Z,22.22
2023-04-02T06:46:30.744Z,22.21
2023-04-02T06:48:36.036Z,22.21
2023-04-02T06:50:41.155Z,22.22
2023-04-02T06:52:46.142Z,22.21
2023-04-02T06:54:51.156Z,22.22
2023-04-02T06:56:56.378Z,22.21
2023-04-02T06:59:01.587Z,22.22
2023-04-02T07:01:06.784Z,22.22
2023-04-02T07:03:11.911Z,22.22
2023-04-02T07:05:16.934Z,22.24
2023-04-02T07:07:21.906Z,22.24
2023-04-02T07:09:26.859Z,22.25
2023-04-02T07:11:31.970Z,22.29
2023-04-02T07:13:37.059Z,22.37
2023-04-02T07:15:42.034Z,22.43
2023-04-02T07:17:47.421Z,22.48
2023-04-02T07:19:52.567Z,22.52
2023-04-02T07:21:57.534Z,22.59
2023-04-02T07:24:02.527Z,22.66
2023-04-02T07:26:07.564Z,22.74
2023-04-02T07:28:12.686Z,22.8
2023-04-02T07:30:17.893Z,22.86
2023-04-02T07:32:22.897Z,22.92
2023-04-02T07:34:28.097Z,22.98
2023-04-02T07:36:33.133Z,23.01
2023-04-02T07:38:38.261Z,23.06
2023-04-02T07:40:43.410Z,23.06
2023-04-02T07:42:48.465Z,23.08
2023-04-02T07:44:53.616Z,23.11
2023-04-02T07:46:58.815Z,23.13
2023-04-02T07:49:04.431Z,23.18
2023-04-02T07:51:09.610Z,23.22
2023-04-02T07:53:14.610Z,23.23
2023-04-02T07:55:19.646Z,23.27
2023-04-02T07:57:24.757Z,23.28
2023-04-02T07:59:29.973Z,23.25
2023-04-02T08:01:35.246Z,23.27
2023-04-02T08:03:40.415Z,23.3
2023-04-02T08:05:45.919Z,23.33
2023-04-02T08:07:50.974Z,23.35
2023-04-02T08:09:56.026Z,23.35
2023-04-02T08:12:01.083Z,23.36
2023-04-02T08:14:06.221Z,23.41
2023-04-02T08:16:11.346Z,23.42
2023-04-02T08:18:16.539Z,23.45
2023-04-02T08:20:21.637Z,23.46
2023-04-02T08:22:26.686Z,23.52
2023-04-02T08:24:31.771Z,23.56
2023-04-02T08:26:36.792Z,23.57
2023-04-02T08:28:41.802Z,23.55
2023-04-02T08:30:46.919Z,23.59
2023-04-02T08:32:52.159Z,23.58
2023-04-02T08:34:57.408Z,23.57
2023-04-02T08:37:02.491Z,23.57
2023-04-02T08:39:07.552Z,23.58
2023-04-02T08:41:12.600Z,23.58
2023-04-02T08:43:17.658Z,23.58
2023-04-02T08:45:25.712Z,23.58
2023-04-02T08:47:43.651Z,23.6
2023-04-02T08:49:48.971Z,23.6
2023-04-02T08:51:54.055Z,23.61
2023-04-02T08:53:59.167Z,23.6
2023-04-02T08:56:04.209Z,23.6
2023-04-02T08:58:09.293Z,23.61
2023-04-02T09:00:14.380Z,23.66
2023-04-02T09:02:19.417Z,23.71
2023-04-02T09:04:24.652Z,23.75
2023-04-02T09:06:30.055Z,23.76
2023-04-02T09:08:35.088Z,23.79
2023-04-02T09:10:40.182Z,23.83
2023-04-02T09:12:45.344Z,23.88
2023-04-02T09:14:50.359Z,23.87
2023-04-02T09:16:55.563Z,23.89
2023-04-02T09:19:00.749Z,23.91
2023-04-02T09:21:05.858Z,23.93
2023-04-02T09:23:10.887Z,23.96
2023-04-02T09:25:15.988Z,23.99
2023-04-02T09:27:21.049Z,24
2023-04-02T09:29:26.105Z,24.01
2023-04-02T09:31:31.166Z,24.04
2023-04-02T09:33:36.448Z,24.07
2023-04-02T09:35:41.615Z,24.05
2023-04-02T09:37:47.182Z,24.07
2023-04-02T09:39:52.298Z,24.07
2023-04-02T09:42:05.309Z,24.11
2023-04-02T09:44:10.887Z,24.1
2023-04-02T09:46:16.023Z,24.11
2023-04-02T09:48:21.269Z,24.11
2023-04-02T09:50:26.401Z,24.12
2023-04-02T09:52:31.456Z,24.11
2023-04-02T09:54:36.557Z,24.14
2023-04-02T09:56:41.570Z,24.19
2023-04-02T09:58:46.816Z,24.24
2023-04-02T10:00:52.009Z,24.25
2023-04-02T10:02:57.231Z,24.27
2023-04-02T10:05:02.449Z,24.29
2023-04-02T10:07:07.540Z,24.33
2023-04-02T10:09:12.556Z,24.33
2023-04-02T10:11:17.594Z,24.33
2023-04-02T10:13:22.667Z,24.34
2023-04-02T10:15:27.831Z,24.36
2023-04-02T10:17:32.934Z,24.35
2023-04-02T10:19:38.120Z,24.35
2023-04-02T10:21:43.322Z,24.36
2023-04-02T10:23:48.380Z,24.36
2023-04-02T10:25:53.460Z,24.37
2023-04-02T10:27:58.511Z,24.41
2023-04-02T10:30:03.627Z,24.42
2023-04-02T10:32:08.878Z,24.43
2023-04-02T10:34:13.983Z,24.45
2023-04-02T10:36:19.204Z,24.47
2023-04-02T10:38:24.271Z,24.49
2023-04-02T10:40:29.413Z,24.5
2023-04-02T10:42:34.477Z,24.5
2023-04-02T10:44:39.617Z,24.5
2023-04-02T10:46:44.735Z,24.48
2023-04-02T10:48:49.800Z,24.48
2023-04-02T10:50:54.922Z,24.5
2023-04-02T10:52:59.942Z,24.47
2023-04-02T10:55:05.070Z,24.48
2023-04-02T10:57:10.214Z,24.49
2023-04-02T10:59:15.391Z,24.51
2023-04-02T11:01:20.420Z,24.52
2023-04-02T11:03:25.767Z,24.53
2023-04-02T11:05:31.352Z,24.57
2023-04-02T11:07:37.179Z,24.6
2023-04-02T11:09:42.279Z,24.61
2023-04-02T11:11:47.481Z,24.61
2023-04-02T11:13:52.591Z,24.65
2023-04-02T11:15:57.799Z,24.71
2023-04-02T11:18:03.110Z,24.73
2023-04-02T11:20:08.536Z,24.76
2023-04-02T11:22:13.681Z,24.78
2023-04-02T11:24:18.748Z,24.8
2023-04-02T11:26:23.853Z,24.79
2023-04-02T11:28:28.925Z,24.78
2023-04-02T11:30:34.087Z,24.77
2023-04-02T11:32:39.358Z,24.77
2023-04-02T11:34:44.676Z,24.75
2023-04-02T11:37:02.274Z,24.76
2023-04-02T11:39:16.872Z,24.75
2023-04-02T11:41:22.537Z,24.74
2023-04-02T11:43:27.598Z,24.75
2023-04-02T11:45:37.586Z,24.75
2023-04-02T11:47:56.582Z,24.75
2023-04-02T11:50:02.059Z,24.74
2023-04-02T11:52:12.197Z,24.76
2023-04-02T11:54:17.841Z,24.75
2023-04-02T11:56:22.874Z,24.7
2023-04-02T11:58:28.095Z,24.67
2023-04-02T12:00:33.349Z,24.67
2023-04-02T12:02:39.297Z,24.69
2023-04-02T12:04:45.015Z,24.69
2023-04-02T12:06:50.182Z,24.69
2023-04-02T12:08:57.823Z,24.7
2023-04-02T12:11:03.335Z,24.7
2023-04-02T12:13:08.423Z,24.68
2023-04-02T12:15:13.472Z,24.68
2023-04-02T12:17:18.614Z,24.68
2023-04-02T12:19:23.864Z,24.68
2023-04-02T12:21:28.980Z,24.7
2023-04-02T12:23:34.024Z,24.71
2023-04-02T12:25:39.056Z,24.73
2023-04-02T12:27:44.224Z,24.73
2023-04-02T12:29:49.286Z,24.74
2023-04-02T12:31:54.484Z,24.75
2023-04-02T12:33:59.589Z,24.74
2023-04-02T12:36:04.708Z,24.68
2023-04-02T12:38:09.935Z,24.69
2023-04-02T12:40:14.952Z,24.67
2023-04-02T12:42:20.121Z,24.65
2023-04-02T12:44:25.189Z,24.68
2023-04-02T12:46:30.337Z,24.7
2023-04-02T12:48:35.643Z,24.69
2023-04-02T12:50:40.836Z,24.68
2023-04-02T12:52:45.981Z,24.66
2023-04-02T12:54:51.141Z,24.66
2023-04-02T12:56:57.754Z,24.67
2023-04-02T12:59:03.128Z,24.7
2023-04-02T13:01:08.311Z,24.74
2023-04-02T13:03:13.435Z,24.74
2023-04-02T13:05:18.723Z,24.75
2023-04-02T13:07:23.941Z,24.77
2023-04-02T13:09:29.034Z,24.8
2023-04-02T13:11:34.206Z,24.78
2023-04-02T13:13:39.258Z,24.66
2023-04-02T13:15:44.359Z,24.52
2023-04-02T13:17:49.571Z,24.38
2023-04-02T13:19:54.813Z,24.29
2023-04-02T13:21:59.907Z,24.23
2023-04-02T13:24:04.998Z,24.16
2023-04-02T13:26:10.050Z,24.09
2023-04-02T13:28:15.199Z,24.06
2023-04-02T13:30:20.273Z,24.02
2023-04-02T13:32:25.413Z,23.97
2023-04-02T13:34:30.631Z,23.98
2023-04-02T13:36:35.685Z,24
2023-04-02T13:38:40.750Z,23.91
2023-04-02T13:40:45.809Z,23.73
2023-04-02T13:42:50.975Z,23.58
2023-04-02T13:44:56.063Z,23.41
2023-04-02T13:47:01.213Z,23.27
2023-04-02T13:49:06.354Z,23.2
2023-04-02T13:51:11.423Z,23.11
2023-04-02T13:53:16.609Z,23.09
2023-04-02T13:55:21.658Z,23.11
2023-04-02T13:57:26.816Z,23.17
2023-04-02T13:59:31.999Z,23.07
2023-04-02T14:01:37.081Z,23.05
2023-04-02T14:03:42.615Z,23.05
2023-04-02T14:05:47.716Z,23.05
2023-04-02T14:07:52.784Z,23.05
2023-04-02T14:09:57.939Z,23.05
2023-04-02T14:12:03.086Z,23.04
2023-04-02T14:14:08.204Z,23.03
2023-04-02T14:16:13.313Z,23.01
2023-04-02T14:18:18.491Z,22.96
2023-04-02T14:20:23.529Z,22.94
2023-04-02T14:22:28.582Z,22.98
2023-04-02T14:24:33.707Z,23
2023-04-02T14:26:38.836Z,23.01
2023-04-02T14:28:43.882Z,22.92
2023-04-02T14:30:49.101Z,22.91
2023-04-02T14:32:54.420Z,22.97
2023-04-02T14:34:59.782Z,23.02
2023-04-02T14:37:04.991Z,23.05
2023-04-02T14:39:10.213Z,23.07
2023-04-02T14:41:15.261Z,23.1
2023-04-02T14:43:20.370Z,23.08
2023-04-02T14:45:25.574Z,23.03
2023-04-02T14:47:30.648Z,22.95
2023-04-02T14:49:35.872Z,22.91
2023-04-02T14:51:40.981Z,22.86
2023-04-02T14:53:46.148Z,22.79
2023-04-02T14:55:51.262Z,22.74
2023-04-02T14:57:56.307Z,22.69
2023-04-02T15:00:01.549Z,22.65
2023-04-02T15:02:06.714Z,22.61
2023-04-02T15:04:11.763Z,22.55
2023-04-02T15:06:16.872Z,22.51
2023-04-02T15:08:21.944Z,22.47
2023-04-02T15:10:27.041Z,22.43
2023-04-02T15:12:32.203Z,22.42
2023-04-02T15:14:37.475Z,22.38
2023-04-02T15:16:42.650Z,22.39
2023-04-02T15:18:47.857Z,22.47
2023-04-02T15:20:53.034Z,22.62
2023-04-02T15:22:58.130Z,22.77
2023-04-02T15:25:03.222Z,22.91
2023-04-02T15:27:11.957Z,23.03
2023-04-02T15:29:29.713Z,23.12
2023-04-02T15:31:34.919Z,23.2
2023-04-02T15:33:40.199Z,23.25
2023-04-02T15:35:45.386Z,23.31
2023-04-02T15:37:50.641Z,23.35
2023-04-02T15:39:55.693Z,23.37
2023-04-02T15:42:00.868Z,23.39
2023-04-02T15:44:05.939Z,23.42
2023-04-02T15:46:11.095Z,23.45
2023-04-02T15:48:16.396Z,23.46
2023-04-02T15:50:21.469Z,23.48
2023-04-02T15:52:26.535Z,23.48
2023-04-02T15:54:31.649Z,23.5
2023-04-02T15:56:36.802Z,23.5
2023-04-02T15:58:41.894Z,23.51
2023-04-02T16:00:46.961Z,23.52
2023-04-02T16:02:52.208Z,23.53
2023-04-02T16:04:57.443Z,23.54
2023-04-02T16:07:02.539Z,23.56
2023-04-02T16:09:07.644Z,23.57
2023-04-02T16:11:12.706Z,23.58
2023-04-02T16:13:17.847Z,23.59
2023-04-02T16:15:23.014Z,23.59
2023-04-02T16:17:28.151Z,23.61
2023-04-02T16:19:33.515Z,23.6
2023-04-02T16:21:38.672Z,23.61
2023-04-02T16:23:43.786Z,23.62
2023-04-02T16:25:48.841Z,23.61
2023-04-02T16:27:53.870Z,23.63
2023-04-02T16:29:59.015Z,23.64
2023-04-02T16:32:04.145Z,23.63
2023-04-02T16:34:09.379Z,23.65
2023-04-02T16:36:14.629Z,23.64
2023-04-02T16:38:19.829Z,23.66
2023-04-02T16:40:24.905Z,23.67
2023-04-02T16:42:30.026Z,23.69
2023-04-02T16:44:35.129Z,23.71
2023-04-02T16:46:40.886Z,23.69
2023-04-02T16:48:46.360Z,23.71
2023-04-02T16:50:51.457Z,23.73
2023-04-02T16:52:56.536Z,23.76
2023-04-02T16:55:01.687Z,23.78
2023-04-02T16:57:06.820Z,23.79
2023-04-02T16:59:12.082Z,23.83
2023-04-02T17:01:17.160Z,23.89
2023-04-02T17:03:22.613Z,23.94
2023-04-02T17:05:28.070Z,23.94
2023-04-02T17:07:33.172Z,23.96
2023-04-02T17:09:38.227Z,23.99
2023-04-02T17:11:43.262Z,24.02
2023-04-02T17:13:48.334Z,24.04
2023-04-02T17:15:53.412Z,24.07
2023-04-02T17:17:58.708Z,24.05
2023-04-02T17:20:03.937Z,23.96
2023-04-02T17:22:09.026Z,23.79
2023-04-02T17:24:14.149Z,23.6
2023-04-02T17:26:19.336Z,23.44
2023-04-02T17:28:24.461Z,23.32
2023-04-02T17:30:29.631Z,23.21
2023-04-02T17:32:34.681Z,23.09
2023-04-02T17:34:39.888Z,23.01
2023-04-02T17:36:44.949Z,22.93
2023-04-02T17:38:50.045Z,22.88
2023-04-02T17:40:55.183Z,22.82
2023-04-02T17:43:00.262Z,22.77
2023-04-02T17:45:05.367Z,22.73
2023-04-02T17:47:10.454Z,22.69
2023-04-02T17:49:15.579Z,22.64
2023-04-02T17:51:20.665Z,22.63
2023-04-02T17:53:28.402Z,22.58
2023-04-02T17:55:33.531Z,22.52
2023-04-02T17:57:38.755Z,22.52
2023-04-02T17:59:44.191Z,22.5
2023-04-02T18:01:49.390Z,22.51
2023-04-02T18:03:54.468Z,22.48
2023-04-02T18:05:59.605Z,22.46
2023-04-02T18:08:04.756Z,22.44
2023-04-02T18:10:09.883Z,22.42
2023-04-02T18:12:15.003Z,22.38
2023-04-02T18:14:20.200Z,22.34
2023-04-02T18:16:25.256Z,22.31
2023-04-02T18:18:30.494Z,22.26
2023-04-02T18:20:35.744Z,22.21
2023-04-02T18:22:41.591Z,22.19
2023-04-02T18:24:46.737Z,22.13
2023-04-02T18:26:51.844Z,22.08
2023-04-02T18:28:56.944Z,22.06
2023-04-02T18:31:02.070Z,22.05
2023-04-02T18:33:07.232Z,22.03
2023-04-02T18:35:12.440Z,22.02
2023-04-02T18:37:17.548Z,22.04
2023-04-02T18:39:22.628Z,22.12
2023-04-02T18:41:27.713Z,22.2
2023-04-02T18:43:32.792Z,22.25
2023-04-02T18:45:37.918Z,22.3
2023-04-02T18:47:43.073Z,22.36
2023-04-02T18:49:48.343Z,22.37
2023-04-02T18:51:53.503Z,22.41
2023-04-02T18:53:58.681Z,22.45
2023-04-02T18:56:03.866Z,22.44
2023-04-02T18:58:09.107Z,22.47
2023-04-02T19:00:14.276Z,22.47
2023-04-02T19:02:19.374Z,22.49
2023-04-02T19:04:24.652Z,22.48
2023-04-02T19:06:29.750Z,22.44
2023-04-02T19:08:34.850Z,22.39
2023-04-02T19:10:39.937Z,22.38
2023-04-02T19:12:44.987Z,22.38
2023-04-02T19:14:50.981Z,22.4
2023-04-02T19:16:57.476Z,22.43
2023-04-02T19:19:02.588Z,22.45
2023-04-02T19:21:07.673Z,22.47
2023-04-02T19:23:15.338Z,22.51
2023-04-02T19:25:20.473Z,22.52
2023-04-02T19:27:28.103Z,22.53
2023-04-02T19:29:33.172Z,22.55
2023-04-02T19:31:38.373Z,22.57
2023-04-02T19:33:43.537Z,22.59
2023-04-02T19:35:48.627Z,22.61
2023-04-02T19:37:53.834Z,22.61
2023-04-02T19:39:58.877Z,22.61
2023-04-02T19:42:04.102Z,22.61
2023-04-02T19:44:10.159Z,22.59
2023-04-02T19:46:17.339Z,22.56
2023-04-02T19:48:22.799Z,22.56
2023-04-02T19:50:27.973Z,22.57
2023-04-02T19:52:33.089Z,22.57
2023-04-02T19:54:38.544Z,22.59
2023-04-02T19:56:43.715Z,22.56
2023-04-02T19:58:48.831Z,22.54
2023-04-02T20:00:53.898Z,22.56
2023-04-02T20:02:59.125Z,22.56
2023-04-02T20:05:04.359Z,22.61
2023-04-02T20:07:09.521Z,22.62
2023-04-02T20:09:14.637Z,22.63
2023-04-02T20:11:19.720Z,22.63
2023-04-02T20:13:24.853Z,22.63
2023-04-02T20:15:29.901Z,22.57
2023-04-02T20:17:35.031Z,22.56
2023-04-02T20:19:40.250Z,22.56
2023-04-02T20:21:45.424Z,22.56
2023-04-02T20:23:50.448Z,22.53
2023-04-02T20:25:55.505Z,22.51
2023-04-02T20:28:00.570Z,22.5
2023-04-02T20:30:05.638Z,22.49
2023-04-02T20:32:10.702Z,22.48
2023-04-02T20:34:15.929Z,22.47
2023-04-02T20:36:21.624Z,22.46
2023-04-02T20:38:26.671Z,22.44
2023-04-02T20:40:32.323Z,22.42
2023-04-02T20:42:38.066Z,22.4
2023-04-02T20:44:43.157Z,22.4
2023-04-02T20:46:48.293Z,22.35
2023-04-02T20:48:53.328Z,22.32
2023-04-02T20:50:58.381Z,22.32
2023-04-02T20:53:03.431Z,22.31
2023-04-02T20:55:08.488Z,22.3
2023-04-02T20:57:13.598Z,22.29
2023-04-02T20:59:18.947Z,22.28
2023-04-02T21:01:24.091Z,22.27
2023-04-02T21:03:29.479Z,22.25
2023-04-02T21:05:34.638Z,22.24
2023-04-02T21:07:39.982Z,22.24
2023-04-02T21:09:45.068Z,22.12
2023-04-02T21:11:50.227Z,21.91
2023-04-02T21:13:55.439Z,21.76
2023-04-02T21:16:00.517Z,21.69
2023-04-02T21:18:05.817Z,21.69
2023-04-02T21:20:11.464Z,21.67
2023-04-02T21:22:17.219Z,21.64
2023-04-02T21:24:22.222Z,21.58
2023-04-02T21:26:27.389Z,21.59
2023-04-02T21:28:33.435Z,21.54
2023-04-02T21:30:38.500Z,21.49
2023-04-02T21:32:43.572Z,21.44
2023-04-02T21:34:48.881Z,21.4
2023-04-02T21:36:54.104Z,21.37
2023-04-02T21:38:59.324Z,21.32
2023-04-02T21:41:04.629Z,21.28
2023-04-02T21:43:09.688Z,21.25
2023-04-02T21:45:14.815Z,21.26
2023-04-02T21:47:19.954Z,21.23
2023-04-02T21:49:25.226Z,21.23
2023-04-02T21:51:30.306Z,21.2
2023-04-02T21:53:35.432Z,21.15
2023-04-02T21:55:40.515Z,21.14
2023-04-02T21:57:45.618Z,21.1
2023-04-02T21:59:50.653Z,21.1
2023-04-02T22:01:55.846Z,21.06
2023-04-02T22:04:01.493Z,21.04
2023-04-02T22:06:06.970Z,21.02
2023-04-02T22:08:12.023Z,21.01
2023-04-02T22:10:17.032Z,21
2023-04-02T22:12:22.151Z,20.97
2023-04-02T22:14:27.235Z,20.95
2023-04-02T22:16:32.350Z,20.94
2023-04-02T22:18:37.753Z,20.92
2023-04-02T22:20:42.850Z,20.92
2023-04-02T22:22:47.885Z,20.91
2023-04-02T22:24:52.925Z,20.89
2023-04-02T22:26:58.056Z,20.87
2023-04-02T22:29:03.280Z,20.85
2023-04-02T22:31:08.465Z,20.83
2023-04-02T22:33:13.800Z,20.81
2023-04-02T22:35:18.868Z,20.8
2023-04-02T22:37:23.936Z,20.77
2023-04-02T22:39:29.090Z,20.78
2023-04-02T22:41:34.232Z,20.78
2023-04-02T22:43:39.502Z,20.77
2023-04-02T22:45:44.585Z,20.73
2023-04-02T22:47:49.916Z,20.73
2023-04-02T22:49:55.085Z,20.7
2023-04-02T22:52:00.166Z,20.67
2023-04-02T22:54:05.297Z,20.67
2023-04-02T22:56:10.472Z,20.65
2023-04-02T22:58:15.586Z,20.62
2023-04-02T23:00:20.672Z,20.61
2023-04-02T23:02:25.936Z,20.59
2023-04-02T23:04:31.134Z,20.58
2023-04-02T23:06:36.204Z,20.57
2023-04-02T23:08:41.265Z,20.57
2023-04-02T23:10:46.386Z,20.55
2023-04-02T23:12:51.414Z,20.55
2023-04-02T23:14:56.439Z,20.55
2023-04-02T23:17:01.578Z,20.55
2023-04-02T23:19:06.686Z,20.53
2023-04-02T23:21:11.732Z,20.51
2023-04-02T23:23:16.884Z,20.51
2023-04-02T23:25:21.963Z,20.51
2023-04-02T23:27:27.082Z,20.49
2023-04-02T23:29:32.156Z,20.45
2023-04-02T23:31:37.221Z,20.44
2023-04-02T23:33:42.644Z,20.43
2023-04-02T23:35:47.710Z,20.41
2023-04-02T23:37:52.926Z,20.38
2023-04-02T23:39:58.061Z,20.39
2023-04-02T23:42:03.123Z,20.38
2023-04-02T23:44:08.286Z,20.37
2023-04-02T23:46:13.401Z,20.35
2023-04-02T23:48:18.511Z,20.35
2023-04-02T23:50:23.581Z,20.33
2023-04-02T23:52:28.711Z,20.33
2023-04-02T23:54:33.766Z,20.31
2023-04-02T23:56:38.820Z,20.29
2023-04-02T23:58:43.898Z,20.26
